Time;durP1;ratioP1;P1;durP2;ratioP2;P2;SDS_P1;SDS_P2;PMS_P1;PMS_P2;Temp;Humidity;BMP_temperature;BMP_pressure;BME280_temperature;BME280_humidity;BME280_pressure;Samples;Min_cycle;Max_cycle;Signal;HPM_P1;HPM_P2
2023/06/12 00:01:50;;;;;;;11.85;8.10;;;27.90;99.90;;;;;;1862186;77;21087;-80
2023/06/12 00:04:21;;;;;;;14.60;8.30;;;27.90;99.90;;;;;;1862516;77;21067;-80
2023/06/12 00:06:53;;;;;;;15.95;8.80;;;28.00;99.90;;;;;;1862351;77;21216;-80
2023/06/12 00:09:25;;;;;;;13.98;9.13;;;27.90;99.90;;;;;;1862338;77;21154;-80
2023/06/12 00:11:56;;;;;;;10.23;8.05;;;27.90;99.90;;;;;;1859711;76;21141;-80
2023/06/12 00:14:28;;;;;;;10.93;7.95;;;27.90;99.90;;;;;;1862355;77;21153;-79
2023/06/12 00:16:59;;;;;;;13.85;8.50;;;27.90;99.90;;;;;;1862469;77;21094;-80
2023/06/12 00:19:31;;;;;;;14.98;8.80;;;27.90;99.90;;;;;;1862374;77;21699;-80
2023/06/12 00:22:02;;;;;;;9.35;7.80;;;27.90;99.90;;;;;;1862404;77;21090;-80
2023/06/12 00:24:34;;;;;;;11.12;8.30;;;27.90;99.90;;;;;;1862319;77;21095;-80
2023/06/12 00:27:06;;;;;;;11.30;8.10;;;28.00;99.90;;;;;;1867158;76;21205;-80
2023/06/12 00:29:40;;;;;;;13.38;8.75;;;28.00;99.90;;;;;;1872942;76;21527;-80
2023/06/12 00:32:11;;;;;;;12.82;8.23;;;28.00;99.90;;;;;;1873845;76;21079;-80
2023/06/12 00:34:42;;;;;;;13.95;7.70;;;28.00;99.90;;;;;;1899791;75;21113;-80
2023/06/12 00:37:14;;;;;;;14.43;8.35;;;28.10;99.90;;;;;;1897741;75;21479;-80
2023/06/12 00:39:45;;;;;;;15.50;7.83;;;28.10;99.90;;;;;;1900029;75;21095;-80
2023/06/12 00:42:16;;;;;;;12.50;7.70;;;28.10;99.90;;;;;;1903305;74;21161;-79
2023/06/12 00:44:50;;;;;;;15.70;8.05;;;28.20;99.90;;;;;;1899728;75;21173;-81
2023/06/12 00:47:24;;;;;;;16.12;8.45;;;28.30;99.90;;;;;;1897664;75;21079;-81
2023/06/12 00:49:58;;;;;;;13.30;7.83;;;28.40;99.90;;;;;;1901946;75;21059;-80
2023/06/12 00:52:34;;;;;;;13.62;7.42;;;28.40;99.90;;;;;;1907477;75;21161;-80
2023/06/12 00:55:06;;;;;;;13.28;7.75;;;28.50;99.90;;;;;;1907551;75;21064;-81
2023/06/12 00:57:38;;;;;;;12.40;7.37;;;28.60;99.90;;;;;;1906730;75;21467;-80
2023/06/12 01:00:11;;;;;;;13.38;7.20;;;28.70;99.90;;;;;;1906936;75;21121;-80
2023/06/12 01:02:46;;;;;;;21.40;8.48;;;28.70;99.90;;;;;;1906912;75;21506;-80
2023/06/12 01:05:20;;;;;;;12.40;8.18;;;28.80;99.90;;;;;;1906889;75;21125;-79
2023/06/12 01:08:03;;;;;;;14.95;7.15;;;28.90;99.90;;;;;;1906800;75;21373;-80
2023/06/12 01:10:37;;;;;;;13.15;7.40;;;28.90;99.90;;;;;;1905282;75;21068;-80
2023/06/12 01:13:12;;;;;;;18.32;7.42;;;28.90;99.90;;;;;;1907128;75;21127;-78
2023/06/12 01:15:48;;;;;;;28.98;7.97;;;28.90;99.90;;;;;;1907438;75;21061;-79
2023/06/12 01:18:20;;;;;;;15.40;7.17;;;29.00;99.90;;;;;;1906959;75;21075;-79
2023/06/12 01:20:58;;;;;;;18.87;6.80;;;29.10;99.90;;;;;;1906555;75;21072;-79
2023/06/12 01:23:47;;;;;;;19.48;6.95;;;29.20;99.90;;;;;;1907061;75;21133;-78
2023/06/12 01:26:33;;;;;;;25.70;8.25;;;29.20;99.90;;;;;;1906991;75;21047;-80
2023/06/12 01:29:11;;;;;;;11.35;7.92;;;29.30;99.90;;;;;;1898526;75;21148;-80
2023/06/12 01:32:05;;;;;;;16.62;7.60;;;29.30;99.90;;;;;;1880533;75;21546;-80
2023/06/12 01:34:41;;;;;;;27.95;8.15;;;29.30;99.90;;;;;;1868025;76;21566;-79
2023/06/12 01:37:17;;;;;;;38.25;9.10;;;29.30;99.90;;;;;;1887812;75;21082;-80
2023/06/12 01:40:00;;;;;;;23.12;7.80;;;29.30;99.90;;;;;;1879064;75;21109;-80
2023/06/12 01:42:36;;;;;;;25.97;8.23;;;29.40;99.90;;;;;;1895284;75;21193;-79
2023/06/12 01:45:31;;;;;;;22.45;6.30;;;29.50;99.90;;;;;;1866961;75;21079;-79
2023/06/12 01:47:53;;;;;;;14.75;6.62;;;29.50;99.90;;;;;;1861576;76;21087;-79
2023/06/12 01:50:24;;;;;;;12.88;6.37;;;29.60;99.90;;;;;;1862428;77;21177;-78
2023/06/12 01:52:56;;;;;;;14.93;5.20;;;29.70;99.90;;;;;;1862173;77;21102;-79
2023/06/12 01:55:29;;;;;;;18.05;6.25;;;29.90;99.90;;;;;;1861952;75;21094;-81
2023/06/12 01:58:00;;;;;;;11.00;5.70;;;30.00;99.90;;;;;;1862187;77;21082;-79
2023/06/12 02:00:38;;;;;;;9.83;5.78;;;30.20;99.90;;;;;;1879866;76;21193;-79
2023/06/12 02:03:14;;;;;;;11.45;5.60;;;30.30;99.90;;;;;;1895042;76;21145;-81
2023/06/12 02:05:59;;;;;;;13.53;5.70;;;30.50;99.90;;;;;;1883438;76;21637;-80
2023/06/12 02:08:37;;;;;;;14.87;5.67;;;30.60;99.90;;;;;;1869769;76;21068;-80
2023/06/12 02:11:08;;;;;;;13.50;5.22;;;30.70;99.90;;;;;;1872788;76;21063;-79
2023/06/12 02:13:39;;;;;;;12.23;5.85;;;30.80;99.90;;;;;;1872851;76;21154;-80
2023/06/12 02:16:10;;;;;;;17.87;7.17;;;31.00;99.30;;;;;;1885415;75;21032;-80
2023/06/12 02:18:42;;;;;;;17.90;6.20;;;31.00;99.50;;;;;;1909508;75;21527;-80
2023/06/12 02:21:13;;;;;;;29.00;7.62;;;31.10;99.30;;;;;;1909889;75;21184;-81
2023/06/12 02:23:44;;;;;;;18.17;6.17;;;31.10;99.90;;;;;;1904543;75;21613;-80
2023/06/12 02:26:16;;;;;;;13.22;5.78;;;31.20;99.10;;;;;;1886336;75;21637;-79
2023/06/12 02:28:50;;;;;;;17.35;5.90;;;31.20;99.30;;;;;;1878499;75;21141;-80
2023/06/12 02:31:24;;;;;;;15.32;5.70;;;31.20;99.20;;;;;;1866593;75;21059;-79
2023/06/12 02:33:56;;;;;;;17.07;7.12;;;31.30;99.40;;;;;;1868396;76;21155;-81
2023/06/12 02:36:27;;;;;;;10.55;5.20;;;31.40;99.50;;;;;;1882126;75;21035;-81
2023/06/12 02:38:59;;;;;;;8.65;4.70;;;31.50;99.00;;;;;;1872946;76;21137;-80
2023/06/12 02:41:31;;;;;;;9.00;5.03;;;31.60;98.30;;;;;;1873052;75;22138;-80
2023/06/12 02:44:03;;;;;;;12.90;5.20;;;31.60;98.40;;;;;;1874234;75;21065;-80
2023/06/12 02:46:35;;;;;;;13.62;6.15;;;31.50;98.40;;;;;;1880670;75;21531;-80
2023/06/12 02:49:06;;;;;;;10.78;4.80;;;31.50;98.00;;;;;;1815911;76;21174;-79
2023/06/12 02:51:38;;;;;;;10.13;4.33;;;31.50;98.70;;;;;;1854556;77;21153;-80
2023/06/12 02:54:10;;;;;;;11.63;5.03;;;31.50;98.30;;;;;;1875457;76;21344;-81
2023/06/12 02:56:47;;;;;;;28.73;6.45;;;31.40;98.30;;;;;;1875910;76;21055;-80
2023/06/12 02:59:21;;;;;;;20.23;5.65;;;31.50;98.10;;;;;;1875927;76;21071;-79
2023/06/12 03:01:53;;;;;;;29.40;6.28;;;31.50;97.90;;;;;;1879680;76;21546;-81
2023/06/12 03:04:24;;;;;;;8.10;4.40;;;31.60;97.90;;;;;;1876813;75;21171;-81
2023/06/12 03:06:57;;;;;;;10.18;4.35;;;31.70;97.70;;;;;;1880549;76;21086;-82
2023/06/12 03:09:28;;;;;;;7.37;4.08;;;31.80;97.60;;;;;;1877603;75;21170;-80
2023/06/12 03:12:00;;;;;;;24.55;5.42;;;31.80;97.60;;;;;;1861467;77;21149;-80
2023/06/12 03:14:33;;;;;;;19.85;4.97;;;31.90;97.30;;;;;;1829182;78;21158;-82
2023/06/12 03:17:04;;;;;;;12.55;4.28;;;32.00;96.90;;;;;;1898289;75;21044;-82
2023/06/12 03:19:35;;;;;;;6.87;3.77;;;32.00;96.90;;;;;;1832088;77;21186;-82
2023/06/12 03:22:07;;;;;;;13.55;4.70;;;32.10;96.90;;;;;;1895633;75;21630;-82
2023/06/12 03:24:38;;;;;;;14.03;4.70;;;32.20;97.10;;;;;;1907396;75;21165;-81
2023/06/12 03:27:10;;;;;;;9.13;4.65;;;32.20;96.80;;;;;;1885113;75;21084;-82
2023/06/12 03:29:42;;;;;;;11.63;4.25;;;32.30;96.70;;;;;;1874444;76;21085;-82
2023/06/12 03:32:13;;;;;;;12.25;4.60;;;32.20;96.40;;;;;;1873510;76;21134;-82
2023/06/12 03:34:46;;;;;;;16.85;5.60;;;32.20;96.60;;;;;;1889007;76;21063;-80
2023/06/12 03:37:16;;;;;;;20.05;4.90;;;32.20;96.80;;;;;;1895155;76;21130;-80
2023/06/12 03:39:47;;;;;;;10.85;3.52;;;32.20;97.10;;;;;;1895216;76;21169;-81
2023/06/12 03:42:18;;;;;;;13.50;4.90;;;32.20;96.20;;;;;;1895161;76;21047;-82
2023/06/12 03:44:49;;;;;;;8.58;3.77;;;32.30;96.30;;;;;;1895403;76;21137;-82
2023/06/12 03:47:21;;;;;;;20.52;5.47;;;32.30;96.40;;;;;;1895276;76;21086;-82
2023/06/12 03:49:52;;;;;;;9.03;4.55;;;32.20;96.10;;;;;;1895135;76;21079;-81
2023/06/12 03:52:23;;;;;;;7.50;4.30;;;32.20;96.30;;;;;;1895076;76;21083;-81
2023/06/12 03:54:54;;;;;;;16.12;4.50;;;32.20;96.10;;;;;;1895151;76;21546;-81
2023/06/12 03:57:26;;;;;;;10.20;4.55;;;32.20;96.00;;;;;;1895172;75;21199;-80
2023/06/12 03:59:57;;;;;;;11.15;4.90;;;32.30;95.90;;;;;;1898775;75;21149;-80
2023/06/12 04:02:29;;;;;;;15.25;5.08;;;32.30;95.80;;;;;;1872466;75;21138;-78
2023/06/12 04:05:01;;;;;;;17.87;5.72;;;32.40;96.00;;;;;;1873072;76;21081;-78
2023/06/12 04:07:32;;;;;;;15.83;5.30;;;32.40;96.00;;;;;;1874357;76;21093;-80
2023/06/12 04:10:04;;;;;;;20.62;5.83;;;32.50;96.10;;;;;;1873915;76;21087;-82
2023/06/12 04:12:35;;;;;;;25.57;5.20;;;32.50;95.20;;;;;;1872619;76;21137;-81
2023/06/12 04:15:07;;;;;;;29.60;6.37;;;32.60;96.00;;;;;;1872447;75;21083;-80
2023/06/12 04:17:38;;;;;;;53.15;8.08;;;32.70;95.80;;;;;;1872667;76;21479;-82
2023/06/12 04:20:13;;;;;;;15.53;4.92;;;32.60;95.60;;;;;;1872933;76;21067;-81
2023/06/12 04:22:47;;;;;;;9.73;4.72;;;32.60;95.40;;;;;;1875184;75;21075;-81
2023/06/12 04:25:16;;;;;;;9.90;4.45;;;32.60;95.10;;;;;;1866988;72;21259;-82
2023/06/12 04:27:48;;;;;;;9.30;4.40;;;32.50;95.00;;;;;;1849985;72;21166;-82
2023/06/12 04:30:21;;;;;;;11.20;5.35;;;32.50;95.50;;;;;;1883410;75;21095;-82
2023/06/12 04:32:53;;;;;;;7.17;4.40;;;32.50;95.30;;;;;;1847874;77;21489;-81
2023/06/12 04:35:25;;;;;;;11.12;4.55;;;32.40;95.30;;;;;;1881791;75;21116;-71
2023/06/12 04:37:57;;;;;;;22.58;5.12;;;32.40;95.50;;;;;;1905525;75;21208;-75
2023/06/12 04:40:29;;;;;;;19.65;5.25;;;32.50;95.60;;;;;;1904411;75;21078;-72
2023/06/12 04:43:00;;;;;;;13.38;5.10;;;32.50;94.90;;;;;;1902140;74;21146;-76
2023/06/12 04:45:32;;;;;;;12.65;4.83;;;32.60;95.20;;;;;;1902839;74;21173;-74
2023/06/12 04:48:04;;;;;;;13.75;5.03;;;32.70;94.90;;;;;;1912006;74;21199;-75
2023/06/12 04:50:36;;;;;;;9.40;3.70;;;32.80;94.90;;;;;;1938810;73;21145;-75
2023/06/12 04:53:08;;;;;;;15.35;4.40;;;32.80;95.30;;;;;;1911980;74;21137;-74
2023/06/12 04:55:41;;;;;;;6.70;3.83;;;32.90;94.50;;;;;;1900049;74;21089;-76
2023/06/12 04:58:12;;;;;;;10.15;3.60;;;32.90;94.20;;;;;;1900299;75;21580;-76
2023/06/12 05:00:55;;;;;;;9.78;3.98;;;32.90;94.40;;;;;;1900391;75;21132;-74
2023/06/12 05:03:20;;;;;;;;;;;32.90;94.70;;;;;;1902155;75;21088;-77
2023/06/12 05:05:53;;;;;;;5.42;3.37;;;33.00;95.30;;;;;;1906024;74;20200;-76
2023/06/12 05:08:24;;;;;;;18.52;4.85;;;33.00;95.40;;;;;;1904735;75;21125;-73
2023/06/12 05:10:56;;;;;;;36.85;6.72;;;33.10;94.80;;;;;;1916420;75;21131;-78
2023/06/12 05:13:28;;;;;;;16.55;4.25;;;33.00;94.60;;;;;;1923809;74;21473;-73
2023/06/12 05:15:59;;;;;;;42.30;6.67;;;33.00;94.70;;;;;;1924084;74;21051;-71
2023/06/12 05:18:31;;;;;;;7.37;3.85;;;32.90;94.40;;;;;;1914123;74;21560;-71
2023/06/12 05:21:03;;;;;;;5.95;3.83;;;32.80;94.30;;;;;;1900920;75;21073;-73
2023/06/12 05:23:35;;;;;;;8.05;4.03;;;32.70;94.80;;;;;;1907554;75;21064;-72
2023/06/12 05:26:07;;;;;;;4.87;3.50;;;32.70;95.00;;;;;;1902988;74;21174;-72
2023/06/12 05:28:39;;;;;;;6.00;4.40;;;32.60;95.00;;;;;;1900724;75;21929;-71
2023/06/12 05:31:11;;;;;;;7.55;4.08;;;32.60;95.40;;;;;;1900439;74;21052;-71
2023/06/12 05:33:43;;;;;;;8.83;4.33;;;32.80;95.10;;;;;;1899794;75;21143;-72
2023/06/12 05:36:15;;;;;;;6.12;4.22;;;32.80;95.00;;;;;;1901768;75;21064;-70
2023/06/12 05:38:47;;;;;;;5.20;3.60;;;32.80;94.90;;;;;;1907187;74;21119;-69
2023/06/12 05:41:19;;;;;;;4.72;3.62;;;32.80;94.90;;;;;;1852832;76;21174;-69
2023/06/12 05:43:50;;;;;;;7.50;3.72;;;32.70;94.50;;;;;;1892133;74;21128;-72
2023/06/12 05:46:22;;;;;;;9.03;4.10;;;32.60;94.70;;;;;;1904784;74;21214;-73
2023/06/12 05:48:57;;;;;;;8.03;3.80;;;32.60;94.50;;;;;;1904677;74;21112;-73
2023/06/12 05:51:27;;;;;;;11.65;4.92;;;32.50;94.80;;;;;;1935469;73;21143;-72
2023/06/12 05:53:59;;;;;;;9.40;4.95;;;32.50;94.90;;;;;;1873838;75;21073;-73
2023/06/12 05:56:31;;;;;;;8.55;4.05;;;32.50;94.90;;;;;;1844411;77;21246;-72
2023/06/12 05:59:09;;;;;;;8.10;4.40;;;32.50;94.70;;;;;;1860099;77;21072;-71
2023/06/12 06:01:37;;;;;;;6.72;3.77;;;32.50;95.30;;;;;;1881148;76;21099;-71
2023/06/12 06:04:11;;;;;;;6.92;3.95;;;32.50;94.80;;;;;;1850108;77;21154;-71
2023/06/12 06:06:42;;;;;;;16.87;4.58;;;32.60;94.30;;;;;;1879512;76;21158;-72
2023/06/12 06:09:15;;;;;;;8.03;3.85;;;32.70;94.40;;;;;;1883220;76;21087;-70
2023/06/12 06:11:46;;;;;;;5.55;3.50;;;32.70;93.60;;;;;;1843338;77;21251;-72
2023/06/12 06:14:19;;;;;;;8.08;3.72;;;32.70;93.20;;;;;;1830895;77;21065;-72
2023/06/12 06:16:51;;;;;;;9.88;3.87;;;32.70;93.90;;;;;;1902587;75;21080;-72
2023/06/12 06:19:24;;;;;;;11.65;3.45;;;32.80;94.40;;;;;;1902201;75;21648;-71
2023/06/12 06:21:56;;;;;;;8.50;3.90;;;32.80;93.60;;;;;;1894854;74;21185;-72
2023/06/12 06:24:28;;;;;;;6.47;3.52;;;32.80;93.70;;;;;;1905762;74;21134;-72
2023/06/12 06:27:00;;;;;;;7.97;3.27;;;32.80;93.40;;;;;;1900390;74;21182;-71
2023/06/12 06:29:31;;;;;;;12.20;4.03;;;32.80;93.10;;;;;;1928195;73;21092;-70
2023/06/12 06:32:03;;;;;;;4.42;3.17;;;32.80;93.20;;;;;;1913022;75;21056;-71
2023/06/12 06:34:35;;;;;;;5.17;2.87;;;32.80;93.10;;;;;;1920820;73;21130;-70
2023/06/12 06:37:07;;;;;;;13.18;4.12;;;32.80;93.00;;;;;;1920401;75;21095;-71
2023/06/12 06:39:38;;;;;;;8.48;3.75;;;32.80;93.10;;;;;;1909625;74;21111;-74
2023/06/12 06:42:11;;;;;;;29.65;5.58;;;32.80;93.50;;;;;;1912756;73;21096;-72
2023/06/12 06:44:43;;;;;;;34.60;6.50;;;32.90;93.40;;;;;;1880920;76;21127;-72
2023/06/12 06:47:14;;;;;;;44.25;6.97;;;33.00;92.40;;;;;;1869994;76;21083;-72
2023/06/12 06:49:46;;;;;;;34.30;5.83;;;33.10;92.00;;;;;;1906280;74;21506;-73
2023/06/12 06:52:19;;;;;;;26.30;4.85;;;33.10;91.40;;;;;;1904051;74;21175;-72
2023/06/12 06:54:52;;;;;;;23.52;8.58;;;33.20;91.60;;;;;;1906425;74;21264;-70
2023/06/12 06:57:23;;;;;;;17.12;4.33;;;33.20;91.90;;;;;;1878436;75;21087;-71
2023/06/12 06:59:57;;;;;;;23.18;4.37;;;33.20;91.60;;;;;;1893223;75;21056;-71
2023/06/12 07:02:28;;;;;;;22.73;4.72;;;33.20;91.60;;;;;;1905833;75;21165;-73
2023/06/12 07:05:00;;;;;;;14.98;3.70;;;33.10;91.70;;;;;;1898355;75;21574;-72
2023/06/12 07:07:31;;;;;;;15.30;4.60;;;33.00;90.90;;;;;;1891849;75;21130;-72
2023/06/12 07:10:04;;;;;;;23.83;4.97;;;33.00;91.40;;;;;;1899965;74;21076;-72
2023/06/12 07:12:36;;;;;;;15.08;4.10;;;33.00;91.80;;;;;;1904280;75;21078;-71
2023/06/12 07:15:09;;;;;;;13.22;3.80;;;32.80;91.50;;;;;;1917474;74;21115;-70
2023/06/12 07:17:41;;;;;;;13.83;4.28;;;32.80;92.00;;;;;;1900740;73;21137;-69
2023/06/12 07:20:13;;;;;;;12.20;3.60;;;32.80;91.90;;;;;;1886346;75;21120;-70
2023/06/12 07:22:45;;;;;;;35.45;6.20;;;32.80;91.90;;;;;;1902475;75;21089;-71
2023/06/12 07:25:17;;;;;;;11.55;3.65;;;32.80;91.80;;;;;;1890191;73;21491;-69
2023/06/12 07:27:49;;;;;;;10.75;3.80;;;32.80;91.50;;;;;;1875326;76;21109;-71
2023/06/12 07:30:21;;;;;;;11.80;4.40;;;32.80;91.70;;;;;;1895914;74;21181;-72
2023/06/12 07:32:53;;;;;;;16.15;4.70;;;32.90;92.10;;;;;;1901026;75;21056;-72
2023/06/12 07:35:25;;;;;;;38.30;7.25;;;32.90;92.10;;;;;;1911048;75;21107;-71
2023/06/12 07:37:57;;;;;;;20.77;4.65;;;33.00;92.00;;;;;;1878740;76;21091;-71
2023/06/12 07:40:28;;;;;;;16.95;4.30;;;32.90;92.00;;;;;;1878958;75;21667;-73
2023/06/12 07:43:00;;;;;;;15.60;3.58;;;32.90;91.90;;;;;;1878651;76;21139;-72
2023/06/12 07:45:32;;;;;;;19.62;5.87;;;32.90;91.60;;;;;;1879103;75;21088;-71
2023/06/12 07:48:04;;;;;;;15.83;4.95;;;32.90;91.60;;;;;;1904152;75;21129;-72
2023/06/12 07:50:38;;;;;;;25.68;6.60;;;32.90;91.90;;;;;;1891912;75;21502;-71
2023/06/12 07:53:09;;;;;;;12.28;5.35;;;32.80;91.80;;;;;;1904245;75;21097;-71
2023/06/12 07:55:43;;;;;;;22.90;6.97;;;32.80;92.10;;;;;;1896799;74;21146;-71
2023/06/12 07:58:14;;;;;;;37.28;7.40;;;32.70;92.40;;;;;;1890659;75;21122;-72
2023/06/12 08:01:05;;;;;;;20.50;5.20;;;32.70;92.40;;;;;;1905056;73;21931;-71
2023/06/12 08:03:39;;;;;;;13.60;5.17;;;32.80;92.40;;;;;;1796392;80;21158;-74
2023/06/12 08:06:15;;;;;;;21.48;5.30;;;32.80;92.60;;;;;;1828491;78;21110;-75
2023/06/12 08:08:48;;;;;;;8.98;4.78;;;32.70;92.60;;;;;;1824163;79;21174;-74
2023/06/12 08:11:20;;;;;;;18.40;5.62;;;32.70;92.60;;;;;;1827550;78;21500;-71
2023/06/12 08:13:52;;;;;;;15.05;6.20;;;32.70;92.70;;;;;;1829643;78;21134;-70
2023/06/12 08:16:25;;;;;;;16.90;5.28;;;32.70;93.00;;;;;;1828375;78;21150;-72
2023/06/12 08:18:56;;;;;;;13.20;5.45;;;32.80;92.90;;;;;;1824015;79;21114;-70
2023/06/12 08:21:29;;;;;;;38.23;6.97;;;32.80;92.50;;;;;;1823197;78;21098;-73
2023/06/12 08:24:01;;;;;;;18.95;5.12;;;32.90;92.30;;;;;;1827571;77;21625;-75
2023/06/12 08:26:33;;;;;;;13.50;5.55;;;32.90;92.40;;;;;;1834575;77;21236;-74
2023/06/12 08:29:08;;;;;;;11.75;4.40;;;32.90;92.80;;;;;;1842975;77;21138;-72
2023/06/12 08:31:41;;;;;;;24.02;5.67;;;32.80;92.60;;;;;;1789165;79;21083;-74
2023/06/12 08:34:17;;;;;;;10.23;4.20;;;32.80;92.30;;;;;;1796912;79;21888;-72
2023/06/12 08:36:49;;;;;;;15.72;5.12;;;32.80;92.20;;;;;;1829512;77;21223;-72
2023/06/12 08:39:21;;;;;;;20.92;4.70;;;32.80;92.50;;;;;;1850782;77;21095;-71
2023/06/12 08:42:06;;;;;;;13.62;4.92;;;32.80;92.60;;;;;;1850504;77;21216;-72
2023/06/12 08:44:41;;;;;;;13.00;4.87;;;32.80;92.40;;;;;;1835658;77;21464;-71
2023/06/12 08:47:18;;;;;;;15.75;4.25;;;33.00;92.00;;;;;;1848829;77;21075;-72
2023/06/12 08:49:47;;;;;;;20.70;5.12;;;33.00;91.90;;;;;;1818416;79;21091;-73
2023/06/12 08:52:25;;;;;;;7.35;3.70;;;33.00;92.40;;;;;;1801357;79;21153;-72
2023/06/12 08:54:57;;;;;;;18.90;4.92;;;33.00;91.60;;;;;;1788467;79;21548;-71
2023/06/12 08:57:29;;;;;;;30.05;5.83;;;32.90;91.80;;;;;;1767686;80;21181;-72
2023/06/12 09:00:04;;;;;;;15.28;5.00;;;32.80;92.00;;;;;;1804942;78;21074;-72
2023/06/12 09:02:35;;;;;;;17.35;5.62;;;32.80;92.40;;;;;;1748655;81;21123;-74
2023/06/12 09:05:09;;;;;;;14.80;4.35;;;32.80;92.40;;;;;;1829071;78;21747;-73
2023/06/12 09:07:44;;;;;;;14.60;4.70;;;32.80;92.40;;;;;;1835590;77;21070;-71
2023/06/12 09:10:16;;;;;;;16.73;4.83;;;32.70;92.60;;;;;;1839102;78;21098;-70
2023/06/12 09:12:48;;;;;;;22.50;5.87;;;32.70;92.60;;;;;;1834010;78;21160;-73
2023/06/12 09:15:21;;;;;;;30.43;6.72;;;32.60;92.80;;;;;;1829957;78;21536;-72
2023/06/12 09:17:55;;;;;;;19.60;6.70;;;32.60;92.90;;;;;;1830633;78;21160;-72
2023/06/12 09:20:32;;;;;;;12.73;6.25;;;32.60;93.10;;;;;;1858880;76;21161;-73
2023/06/12 09:23:05;;;;;;;27.40;7.72;;;32.50;93.20;;;;;;1836933;77;21130;-72
2023/06/12 09:25:43;;;;;;;12.40;5.42;;;32.50;93.50;;;;;;1819373;77;21182;-71
2023/06/12 09:28:13;;;;;;;18.23;6.07;;;32.50;93.20;;;;;;1827299;78;21160;-69
2023/06/12 09:30:45;;;;;;;8.50;4.40;;;32.50;93.40;;;;;;1834544;77;21397;-70
2023/06/12 09:33:18;;;;;;;20.37;7.62;;;32.50;93.30;;;;;;1825349;77;21190;-72
2023/06/12 09:35:53;;;;;;;29.42;7.05;;;32.50;93.40;;;;;;1837205;78;21225;-71
2023/06/12 09:38:36;;;;;;;77.70;12.40;;;32.50;93.40;;;;;;1830714;77;21106;-72
2023/06/12 09:41:09;;;;;;;23.73;7.50;;;32.50;93.50;;;;;;1829340;78;21114;-72
2023/06/12 09:43:41;;;;;;;13.20;5.30;;;32.50;93.60;;;;;;1830601;77;21090;-73
2023/06/12 09:46:13;;;;;;;11.73;5.00;;;32.50;93.60;;;;;;1833163;78;21185;-73
2023/06/12 09:48:45;;;;;;;9.13;5.42;;;32.50;93.20;;;;;;1835261;78;21067;-74
2023/06/12 09:51:16;;;;;;;13.32;6.03;;;32.50;93.30;;;;;;1830187;78;21554;-74
2023/06/12 09:53:49;;;;;;;16.27;6.50;;;32.50;93.30;;;;;;1862317;77;21659;-72
2023/06/12 09:56:22;;;;;;;12.00;6.58;;;32.50;93.30;;;;;;1830732;77;21090;-73
2023/06/12 09:58:56;;;;;;;15.60;6.40;;;32.50;93.30;;;;;;1817925;77;21180;-73
2023/06/12 10:01:28;;;;;;;28.92;8.25;;;32.50;93.40;;;;;;1858230;77;21176;-72
2023/06/12 10:04:00;;;;;;;39.63;12.00;;;32.50;93.70;;;;;;1842815;77;21141;-72
2023/06/12 10:06:35;;;;;;;19.23;7.37;;;32.50;93.60;;;;;;1831277;77;21071;-71
2023/06/12 10:09:07;;;;;;;19.67;6.15;;;32.50;93.50;;;;;;1824314;77;21129;-72
2023/06/12 10:11:40;;;;;;;13.93;5.53;;;32.60;93.10;;;;;;1829976;77;21162;-75
2023/06/12 10:14:12;;;;;;;13.20;6.45;;;32.60;92.90;;;;;;1829438;78;21600;-72
2023/06/12 10:16:44;;;;;;;17.00;5.35;;;32.60;92.70;;;;;;1830804;77;21085;-71
2023/06/12 10:19:16;;;;;;;14.95;6.67;;;32.50;93.00;;;;;;1836608;77;21087;-75
2023/06/12 10:21:48;;;;;;;12.73;5.55;;;32.50;93.20;;;;;;1861585;77;21196;-73
2023/06/12 10:24:20;;;;;;;13.40;6.72;;;32.50;92.90;;;;;;1839269;77;21138;-71
2023/06/12 10:26:54;;;;;;;17.30;5.12;;;32.50;93.20;;;;;;1829927;77;21138;-72
2023/06/12 10:29:30;;;;;;;19.27;7.30;;;32.50;92.90;;;;;;1789068;79;21173;-72
2023/06/12 10:32:10;;;;;;;20.75;6.50;;;32.50;93.20;;;;;;1759971;81;21734;-75
2023/06/12 10:34:45;;;;;;;25.88;8.05;;;32.50;93.20;;;;;;1768940;81;21609;-78
2023/06/12 10:37:39;;;;;;;14.93;7.28;;;32.50;93.00;;;;;;1828979;78;21094;-78
2023/06/12 10:40:16;;;;;;;13.13;5.97;;;32.50;93.00;;;;;;1821735;78;21661;-81
2023/06/12 10:42:56;;;;;;;13.53;6.17;;;32.50;92.90;;;;;;1825140;78;21141;-82
2023/06/12 10:45:32;;;;;;;11.53;6.15;;;32.50;93.30;;;;;;1828878;78;21125;-80
2023/06/12 10:48:09;;;;;;;12.65;6.80;;;32.50;93.00;;;;;;1829898;78;21227;-79
2023/06/12 10:50:51;;;;;;;16.07;6.10;;;32.50;92.90;;;;;;1829112;78;21168;-80
2023/06/12 10:53:29;;;;;;;20.70;7.85;;;32.50;93.00;;;;;;1830087;78;21141;-78
2023/06/12 10:56:08;;;;;;;16.95;6.75;;;32.50;93.20;;;;;;1829295;78;21223;-78
2023/06/12 10:58:41;;;;;;;11.20;6.40;;;32.50;93.00;;;;;;1829888;78;21098;-80
2023/06/12 11:01:17;;;;;;;20.02;6.97;;;32.40;92.70;;;;;;1829604;78;21063;-79
2023/06/12 11:03:49;;;;;;;13.17;6.87;;;32.40;92.60;;;;;;1829646;78;21172;-82
2023/06/12 11:06:24;;;;;;;9.65;6.33;;;32.40;92.90;;;;;;1829391;78;21701;-79
2023/06/12 11:08:56;;;;;;;20.20;8.28;;;32.40;92.90;;;;;;1829411;78;21383;-80
2023/06/12 11:11:27;;;;;;;24.20;8.43;;;32.30;92.90;;;;;;1826996;78;21172;-81
2023/06/12 11:14:01;;;;;;;18.65;8.33;;;32.30;92.90;;;;;;1829490;78;21141;-78
2023/06/12 11:16:33;;;;;;;11.65;6.90;;;32.40;93.10;;;;;;1829604;78;21102;-80
2023/06/12 11:19:08;;;;;;;15.00;8.15;;;32.30;93.10;;;;;;1828795;78;21102;-81
2023/06/12 11:21:41;;;;;;;11.85;8.30;;;32.30;93.20;;;;;;1829800;78;21223;-79
2023/06/12 11:24:12;;;;;;;22.20;8.18;;;32.30;93.00;;;;;;1829632;78;21193;-80
2023/06/12 11:26:44;;;;;;;14.18;8.10;;;32.30;93.10;;;;;;1829491;78;21101;-81
2023/06/12 11:29:16;;;;;;;15.08;7.42;;;32.20;93.10;;;;;;1829702;78;21149;-79
2023/06/12 11:31:50;;;;;;;26.77;10.13;;;32.20;93.70;;;;;;1829199;78;21098;-79
2023/06/12 11:34:22;;;;;;;18.10;8.68;;;32.20;93.30;;;;;;1829575;78;21109;-80
2023/06/12 11:36:54;;;;;;;14.43;9.25;;;32.10;92.90;;;;;;1829826;78;21070;-80
2023/06/12 11:39:25;;;;;;;15.60;8.85;;;32.10;93.00;;;;;;1829816;78;21137;-79
2023/06/12 11:41:58;;;;;;;17.87;9.88;;;32.10;93.00;;;;;;1829276;78;21126;-80
2023/06/12 11:44:30;;;;;;;17.67;10.25;;;32.10;92.90;;;;;;1829608;78;21117;-80
2023/06/12 11:47:02;;;;;;;22.75;10.80;;;32.10;92.80;;;;;;1829471;78;21200;-79
2023/06/12 11:49:36;;;;;;;17.02;10.23;;;32.10;92.90;;;;;;1828153;78;21275;-80
2023/06/12 11:52:08;;;;;;;15.40;10.28;;;32.00;92.70;;;;;;1825372;78;21070;-79
2023/06/12 11:54:58;;;;;;;14.87;10.58;;;32.00;92.70;;;;;;1826357;78;21110;-80
2023/06/12 11:57:31;;;;;;;17.10;9.78;;;32.00;92.80;;;;;;1826236;78;21166;-81
2023/06/12 12:00:14;;;;;;;19.10;10.55;;;31.90;92.90;;;;;;1826399;78;21161;-80
2023/06/12 12:02:51;;;;;;;13.85;11.05;;;32.00;93.00;;;;;;1826612;78;21561;-81
2023/06/12 12:05:24;;;;;;;20.97;11.00;;;31.90;93.00;;;;;;1826704;78;21235;-80
2023/06/12 12:07:57;;;;;;;19.12;11.68;;;31.90;93.10;;;;;;1826816;78;21090;-79
2023/06/12 12:10:29;;;;;;;20.20;12.10;;;31.90;93.10;;;;;;1828180;78;21097;-79
2023/06/12 12:13:02;;;;;;;19.82;11.55;;;31.90;93.20;;;;;;1822723;78;21599;-79
2023/06/12 12:15:43;;;;;;;17.80;10.88;;;31.90;93.10;;;;;;1827427;78;21141;-80
2023/06/12 12:18:15;;;;;;;18.20;10.58;;;31.90;93.10;;;;;;1826790;78;21098;-80
2023/06/12 12:21:07;;;;;;;15.85;9.63;;;31.80;93.10;;;;;;1826967;78;21168;-80
2023/06/12 12:23:38;;;;;;;16.30;8.98;;;31.80;93.20;;;;;;1782517;79;21086;-80
2023/06/12 12:26:14;;;;;;;20.10;9.98;;;31.80;93.30;;;;;;1846327;77;21131;-82
2023/06/12 12:28:45;;;;;;;15.63;8.97;;;31.80;93.40;;;;;;1850360;77;21208;-80
2023/06/12 12:31:17;;;;;;;13.05;8.30;;;31.70;93.20;;;;;;1845454;76;21571;-80
2023/06/12 12:33:48;;;;;;;14.07;8.30;;;31.70;93.20;;;;;;1845947;77;21545;-80
2023/06/12 12:36:20;;;;;;;14.60;9.05;;;31.70;93.10;;;;;;1845800;77;21091;-81
2023/06/12 12:38:51;;;;;;;18.32;9.33;;;31.70;93.10;;;;;;1851947;77;21158;-80
2023/06/12 12:41:22;;;;;;;17.27;8.85;;;31.70;93.10;;;;;;1848780;77;21557;-81
2023/06/12 12:43:54;;;;;;;12.33;8.30;;;31.70;92.90;;;;;;1852379;77;21143;-81
2023/06/12 12:46:28;;;;;;;11.65;8.18;;;31.70;93.10;;;;;;1850775;77;21154;-81
2023/06/12 12:48:59;;;;;;;13.68;8.40;;;31.60;93.10;;;;;;1846053;77;21077;-80
2023/06/12 12:51:31;;;;;;;13.18;8.50;;;31.60;93.10;;;;;;1846084;76;21213;-81
2023/06/12 12:54:02;;;;;;;15.15;8.93;;;31.60;93.30;;;;;;1819313;79;21141;-81
2023/06/12 12:56:34;;;;;;;15.72;8.95;;;31.60;93.40;;;;;;1845606;76;21147;-79
2023/06/12 12:59:06;;;;;;;16.93;8.30;;;31.60;93.40;;;;;;1851946;77;21083;-80
2023/06/12 13:01:38;;;;;;;12.80;8.95;;;31.60;93.40;;;;;;1848243;77;22344;-80
2023/06/12 13:04:09;;;;;;;17.95;9.25;;;31.50;93.30;;;;;;1847839;75;21153;-80
2023/06/12 13:06:41;;;;;;;12.93;8.65;;;31.50;93.50;;;;;;1850217;76;21114;-79
2023/06/12 13:09:12;;;;;;;12.73;9.25;;;31.50;93.50;;;;;;1850239;75;21118;-80